createdAt,value
2022-11-03T00:02:13.623Z,100739.84
2022-11-03T00:04:41.045Z,100749.28
2022-11-03T00:07:08.320Z,100743.44
2022-11-03T00:09:35.890Z,100745.41
2022-11-03T00:12:03.184Z,100739.31
2022-11-03T00:14:31.372Z,100736.69
2022-11-03T00:16:58.722Z,100734.59
2022-11-03T00:19:25.854Z,100733.75
2022-11-03T00:21:53.031Z,100735.56
2022-11-03T00:24:20.319Z,100727.81
2022-11-03T00:26:47.607Z,100738.56
2022-11-03T00:29:15.494Z,100738.63
2022-11-03T00:31:45.094Z,100722.03
2022-11-03T00:34:12.958Z,100730.75
2022-11-03T00:36:43.902Z,100729.78
2022-11-03T00:39:12.814Z,100722.72
2022-11-03T00:41:41.013Z,100722.56
2022-11-03T00:44:10.505Z,100726.09
2022-11-03T00:46:38.691Z,100732.34
2022-11-03T00:49:06.665Z,100729.34
2022-11-03T00:51:37.585Z,100731.06
2022-11-03T00:54:07.474Z,100728.81
2022-11-03T00:56:39.703Z,100731.59
2022-11-03T00:59:09.730Z,100723.69
2022-11-03T01:01:47.007Z,100717.75
2022-11-03T01:04:35.897Z,100712.63
2022-11-03T01:07:05.777Z,100710.84
2022-11-03T01:09:43.315Z,100729.41
2022-11-03T01:12:18.669Z,100727.81
2022-11-03T01:14:53.108Z,100725.09
2022-11-03T01:17:28.204Z,100728.41
2022-11-03T01:19:55.906Z,100716.75
2022-11-03T01:22:24.459Z,100719.53
2022-11-03T01:24:52.020Z,100722.31
2022-11-03T01:27:23.025Z,100720.59
2022-11-03T01:29:50.416Z,100711.88
2022-11-03T01:32:17.723Z,100705.59
2022-11-03T01:34:44.960Z,100705.59
2022-11-03T01:37:12.238Z,100710.00
2022-11-03T01:39:39.559Z,100708.88
2022-11-03T01:42:06.722Z,100701.81
2022-11-03T01:44:37.834Z,100703.63
2022-11-03T01:47:22.413Z,100685.34
2022-11-03T01:50:08.802Z,100689.81
2022-11-03T01:52:57.202Z,100696.78
2022-11-03T01:55:32.794Z,100693.09
2022-11-03T01:58:04.499Z,100693.09
2022-11-03T02:00:32.096Z,100682.88
2022-11-03T02:03:00.857Z,100683.72
2022-11-03T02:05:30.212Z,100682.00
2022-11-03T02:08:26.224Z,100682.88
2022-11-03T02:10:53.635Z,100689.38
2022-11-03T02:13:25.873Z,100688.59
2022-11-03T02:15:59.463Z,100691.16
2022-11-03T02:18:32.522Z,100684.25
2022-11-03T02:21:35.694Z,100680.25
2022-11-03T02:24:36.232Z,100681.16
2022-11-03T02:27:03.763Z,100684.56
2022-11-03T02:29:30.943Z,100684.56
2022-11-03T02:32:28.311Z,100681.78
2022-11-03T02:35:28.172Z,100679.91
2022-11-03T02:38:01.121Z,100686.66
2022-11-03T02:40:53.270Z,100690.69
2022-11-03T02:43:22.605Z,100684.41
2022-11-03T02:45:52.762Z,100683.50
2022-11-03T02:48:20.135Z,100687.13
2022-11-03T02:50:51.426Z,100682.91
2022-11-03T02:53:20.307Z,100674.94
2022-11-03T02:56:05.370Z,100675.09
2022-11-03T02:59:14.344Z,100670.97
2022-11-03T03:01:52.778Z,100668.34
2022-11-03T03:04:46.503Z,100672.59
2022-11-03T03:07:22.571Z,100657.66
2022-11-03T03:10:14.002Z,100655.47
2022-11-03T03:12:57.655Z,100657.41
2022-11-03T03:16:11.532Z,100653.06
2022-11-03T03:19:06.505Z,100654.78
2022-11-03T03:21:46.164Z,100653.00
2022-11-03T03:24:48.819Z,100650.50
2022-11-03T03:27:18.593Z,100654.78
2022-11-03T03:29:59.018Z,100643.44
2022-11-03T03:32:31.412Z,100639.56
2022-11-03T03:35:01.036Z,100629.72
2022-11-03T03:37:30.416Z,100647.38
2022-11-03T03:40:03.943Z,100643.84
2022-11-03T03:42:32.929Z,100647.44
2022-11-03T03:45:00.862Z,100638.78
2022-11-03T03:47:31.879Z,100648.47
2022-11-03T03:49:59.415Z,100654.34
2022-11-03T03:52:28.255Z,100650.63
2022-11-03T03:54:56.606Z,100651.41
2022-11-03T03:57:25.422Z,100647.16
2022-11-03T03:59:52.772Z,100647.84
2022-11-03T04:02:20.155Z,100644.31
2022-11-03T04:04:47.440Z,100644.44
2022-11-03T04:07:33.131Z,100648.78
2022-11-03T04:10:00.409Z,100647.84
2022-11-03T04:12:46.283Z,100646.09
2022-11-03T04:15:32.839Z,100639.94
2022-11-03T04:18:23.425Z,100644.00
2022-11-03T04:21:09.243Z,100644.22
2022-11-03T04:23:36.478Z,100646.03
2022-11-03T04:26:07.046Z,100640.09
2022-11-03T04:28:34.376Z,100634.84
2022-11-03T04:31:01.762Z,100628.09
2022-11-03T04:33:30.109Z,100625.81
2022-11-03T04:36:00.313Z,100631.22
2022-11-03T04:38:29.432Z,100621.78
2022-11-03T04:41:00.359Z,100622.50
2022-11-03T04:43:35.885Z,100628.53
2022-11-03T04:46:03.208Z,100626.88
2022-11-03T04:48:30.683Z,100617.78
2022-11-03T04:51:13.566Z,100605.47
2022-11-03T04:53:49.437Z,100605.47
2022-11-03T04:56:24.360Z,100620.41
2022-11-03T04:58:53.816Z,100605.56
2022-11-03T05:01:24.953Z,100619.81
2022-11-03T05:03:54.865Z,100611.69
2022-11-03T05:06:27.558Z,100618.63
2022-11-03T05:09:07.722Z,100619.34
2022-11-03T05:11:39.064Z,100613.94
2022-11-03T05:14:26.968Z,100607.97
2022-11-03T05:16:55.719Z,100605.25
2022-11-03T05:19:40.073Z,100598.47
2022-11-03T05:22:17.648Z,100593.28
2022-11-03T05:24:45.161Z,100598.41
2022-11-03T05:27:30.807Z,100596.47
2022-11-03T05:30:01.017Z,100592.41
2022-11-03T05:32:33.511Z,100599.38
2022-11-03T05:35:01.274Z,100596.69
2022-11-03T05:37:35.993Z,100603.16
2022-11-03T05:40:26.999Z,100597.75
2022-11-03T05:43:00.116Z,100605.41
2022-11-03T05:45:35.670Z,100609.91
2022-11-03T05:48:13.709Z,100610.75
2022-11-03T05:50:42.570Z,100615.00
2022-11-03T05:53:32.451Z,100613.16
2022-11-03T05:56:04.513Z,100602.84
2022-11-03T05:58:41.159Z,100604.78
2022-11-03T06:01:36.012Z,100595.19
2022-11-03T06:04:34.116Z,100596.97
2022-11-03T06:07:16.811Z,100603.00
2022-11-03T06:09:44.197Z,100600.06
2022-11-03T06:12:19.018Z,100593.91
2022-11-03T06:14:46.708Z,100609.53
2022-11-03T06:17:27.020Z,100600.59
2022-11-03T06:19:59.370Z,100608.63
2022-11-03T06:22:38.282Z,100606.84
2022-11-03T06:25:29.281Z,100613.81
2022-11-03T06:28:05.176Z,100611.41
2022-11-03T06:30:39.871Z,100611.31
2022-11-03T06:33:35.870Z,100612.16
2022-11-03T06:36:25.990Z,100619.00
2022-11-03T06:39:01.879Z,100618.19
2022-11-03T06:41:36.406Z,100627.03
2022-11-03T06:44:25.454Z,100626.50
2022-11-03T06:46:57.458Z,100631.91
2022-11-03T06:49:36.069Z,100630.03
2022-11-03T06:52:26.009Z,100630.78
2022-11-03T06:55:13.687Z,100624.47
2022-11-03T06:57:47.986Z,100627.16
2022-11-03T07:00:34.114Z,100626.13
2022-11-03T07:03:25.221Z,100628.41
2022-11-03T07:05:59.298Z,100624.09
2022-11-03T07:08:45.366Z,100621.69
2022-11-03T07:11:31.209Z,100614.56
2022-11-03T07:14:25.084Z,100609.59
2022-11-03T07:17:01.160Z,100609.91
2022-11-03T07:19:35.102Z,100610.19
2022-11-03T07:22:22.538Z,100613.97
2022-11-03T07:24:55.279Z,100609.28
2022-11-03T07:27:39.039Z,100602.53
2022-11-03T07:30:31.403Z,100609.00
2022-11-03T07:33:29.699Z,100610.81
2022-11-03T07:36:14.940Z,100613.44
2022-11-03T07:38:48.140Z,100605.78
2022-11-03T07:41:31.202Z,100613.38
2022-11-03T07:44:02.102Z,100607.81
2022-11-03T07:46:29.564Z,100604.50
2022-11-03T07:49:04.381Z,100596.69
2022-11-03T07:51:40.461Z,100593.84
2022-11-03T07:54:23.535Z,100602.56
2022-11-03T07:56:59.992Z,100608.84
2022-11-03T07:59:53.782Z,100601.03
2022-11-03T08:02:48.137Z,100597.66
2022-11-03T08:05:15.662Z,100591.50
2022-11-03T08:07:43.149Z,100593.91
2022-11-03T08:10:10.520Z,100588.88
2022-11-03T08:12:37.914Z,100592.50
2022-11-03T08:15:07.140Z,100584.38
2022-11-03T08:17:34.386Z,100597.06
2022-11-03T08:20:01.691Z,100583.06
2022-11-03T08:22:29.964Z,100580.72
2022-11-03T08:24:57.147Z,100586.69
2022-11-03T08:27:24.298Z,100578.56
2022-11-03T08:29:51.475Z,100581.44
2022-11-03T08:32:18.718Z,100576.53
2022-11-03T08:34:45.967Z,100573.97
2022-11-03T08:37:13.288Z,100572.28
2022-11-03T08:39:41.556Z,100565.66
2022-11-03T08:42:08.926Z,100564.34
2022-11-03T08:44:36.114Z,100555.00
2022-11-03T08:47:03.342Z,100555.16
2022-11-03T08:49:30.705Z,100557.63
2022-11-03T08:51:58.066Z,100557.78
2022-11-03T08:54:25.341Z,100561.25
2022-11-03T08:56:52.772Z,100554.88
2022-11-03T08:59:20.149Z,100557.44
2022-11-03T09:01:47.479Z,100559.97
2022-11-03T09:04:15.047Z,100558.47
2022-11-03T09:06:42.593Z,100560.50
2022-11-03T09:11:57.058Z,100560.66
2022-11-03T09:14:24.290Z,100548.91
2022-11-03T09:16:51.590Z,100545.59
2022-11-03T09:19:18.863Z,100536.09
2022-11-03T09:21:46.293Z,100537.31
2022-11-03T09:24:13.588Z,100525.03
2022-11-03T09:26:41.085Z,100519.03
2022-11-03T09:29:08.542Z,100510.88
2022-11-03T09:31:36.202Z,100511.94
2022-11-03T09:34:03.754Z,100511.16
2022-11-03T09:36:31.099Z,100499.59
2022-11-03T09:38:58.494Z,100507.69
2022-11-03T09:41:36.303Z,100506.41
2022-11-03T09:44:13.584Z,100495.75
2022-11-03T09:46:41.239Z,100506.84
2022-11-03T09:49:08.590Z,100506.84
2022-11-03T09:51:36.805Z,100505.19
2022-11-03T09:54:06.134Z,100498.50
2022-11-03T09:56:37.557Z,100499.41
2022-11-03T09:59:23.807Z,100509.97
2022-11-03T10:01:53.995Z,100504.13
2022-11-03T10:04:28.325Z,100491.25
2022-11-03T10:06:57.526Z,100483.03
2022-11-03T10:09:26.305Z,100479.56
2022-11-03T10:11:55.328Z,100479.50
2022-11-03T10:14:23.795Z,100476.53
2022-11-03T10:17:02.411Z,100467.38
2022-11-03T10:19:31.986Z,100467.91
2022-11-03T10:21:59.264Z,100465.94
2022-11-03T10:24:26.454Z,100461.94
2022-11-03T10:26:57.632Z,100460.47
2022-11-03T10:29:28.076Z,100456.59
2022-11-03T10:31:58.581Z,100452.72
2022-11-03T10:34:39.345Z,100454.44
2022-11-03T10:37:20.846Z,100444.88
2022-11-03T10:39:52.581Z,100429.94
2022-11-03T10:42:34.850Z,100429.88
2022-11-03T10:45:19.876Z,100418.06
2022-11-03T10:48:05.108Z,100414.75
2022-11-03T10:50:32.578Z,100407.94
2022-11-03T10:52:59.814Z,100414.38
2022-11-03T10:55:27.752Z,100406.97
2022-11-03T10:57:56.555Z,100409.47
2022-11-03T11:00:25.362Z,100418.00
2022-11-03T11:02:59.843Z,100421.00
2022-11-03T11:05:27.345Z,100427.06
2022-11-03T11:07:55.669Z,100430.84
2022-11-03T11:10:27.011Z,100432.63
2022-11-03T11:13:26.932Z,100426.19
2022-11-03T11:16:02.557Z,100428.16
2022-11-03T11:18:29.599Z,100426.50
2022-11-03T11:21:21.648Z,100409.41
2022-11-03T11:23:52.413Z,100410.78
2022-11-03T11:26:40.944Z,100408.63
2022-11-03T11:29:11.595Z,100392.00
2022-11-03T11:31:40.085Z,100393.81
2022-11-03T11:34:10.427Z,100392.78
2022-11-03T11:36:57.154Z,100390.88
2022-11-03T11:39:24.304Z,100382.19
2022-11-03T11:42:15.052Z,100364.34
2022-11-03T11:44:54.762Z,100364.25
2022-11-03T11:47:40.796Z,100359.34
2022-11-03T11:50:10.602Z,100355.84
2022-11-03T11:53:09.911Z,100343.41
2022-11-03T11:55:56.196Z,100330.19
2022-11-03T11:58:30.246Z,100326.66
2022-11-03T12:01:35.852Z,100313.56
2022-11-03T12:06:46.370Z,100299.50
2022-11-03T12:09:13.397Z,100290.38
2022-11-03T12:11:55.629Z,100280.69
2022-11-03T12:14:33.725Z,100275.00
2022-11-03T12:17:19.218Z,100279.97
2022-11-03T12:19:50.172Z,100265.16
2022-11-03T12:22:26.273Z,100259.09
2022-11-03T12:25:08.384Z,100254.38
2022-11-03T12:27:35.749Z,100252.56
2022-11-03T12:30:17.614Z,100235.44
2022-11-03T12:32:47.360Z,100237.63
2022-11-03T12:35:15.270Z,100235.34
2022-11-03T12:37:42.607Z,100226.06
2022-11-03T12:40:13.816Z,100210.69
2022-11-03T12:42:41.087Z,100195.47
2022-11-03T12:45:09.260Z,100181.59
2022-11-03T12:47:36.457Z,100176.56
2022-11-03T12:50:04.419Z,100170.31
2022-11-03T12:52:31.668Z,100162.66
2022-11-03T12:54:58.844Z,100164.28
2022-11-03T12:57:26.013Z,100159.97
2022-11-03T12:59:53.264Z,100155.63
2022-11-03T13:02:20.518Z,100143.91
2022-11-03T13:04:47.872Z,100129.72
2022-11-03T13:07:16.454Z,100128.19
2022-11-03T13:09:45.488Z,100123.34
2022-11-03T13:12:31.600Z,100105.44
2022-11-03T13:15:00.575Z,100094.88
2022-11-03T13:17:32.285Z,100095.16
2022-11-03T13:22:41.317Z,100084.25
2022-11-03T13:25:09.593Z,100074.34
2022-11-03T13:27:37.355Z,100076.66
2022-11-03T13:30:07.322Z,100075.56
2022-11-03T13:32:34.754Z,100080.06
2022-11-03T13:35:02.090Z,100097.47
2022-11-03T13:37:29.296Z,100094.56
2022-11-03T13:39:56.484Z,100092.94
2022-11-03T13:42:23.732Z,100098.97
2022-11-03T13:44:51.140Z,100100.72
2022-11-03T13:47:18.407Z,100106.94
2022-11-03T13:50:12.280Z,100112.34
2022-11-03T13:52:32.980Z,100105.88
2022-11-03T14:00:34.859Z,100108.78
2022-11-03T14:05:49.248Z,100103.19
2022-11-03T14:08:16.485Z,100098.91
2022-11-03T14:10:43.740Z,100092.56
2022-11-03T14:13:12.171Z,100088.06
2022-11-03T14:15:39.439Z,100086.28
2022-11-03T14:18:06.792Z,100091.38
2022-11-03T14:20:33.986Z,100091.19
2022-11-03T14:23:01.147Z,100082.22
2022-11-03T14:25:29.560Z,100073.34
2022-11-03T14:27:56.889Z,100066.09
2022-11-03T14:30:24.156Z,100069.44
2022-11-03T14:32:54.250Z,100074.47
2022-11-03T14:35:25.861Z,100067.19
2022-11-03T14:37:53.041Z,100072.13
2022-11-03T14:40:39.044Z,100061.38
2022-11-03T14:43:06.442Z,100075.31
2022-11-03T14:45:35.895Z,100063.66
2022-11-03T14:48:06.174Z,100061.81
2022-11-03T14:50:33.583Z,100044.13
2022-11-03T14:53:00.786Z,100039.69
2022-11-03T14:55:27.926Z,100041.50
2022-11-03T14:57:55.113Z,100048.56
2022-11-03T15:00:22.324Z,100047.59
2022-11-03T15:02:49.548Z,100043.94
2022-11-03T15:05:35.541Z,100042.97
2022-11-03T15:08:03.024Z,100035.06
2022-11-03T15:10:30.277Z,100032.34
2022-11-03T15:12:57.450Z,100030.56
2022-11-03T15:15:25.253Z,100027.78
2022-11-03T15:17:52.534Z,100023.00
2022-11-03T15:20:20.015Z,100022.09
2022-11-03T15:25:36.351Z,100021.13
2022-11-03T15:28:03.697Z,100022.75
2022-11-03T15:30:30.937Z,100014.03
2022-11-03T15:32:58.175Z,100011.34
2022-11-03T15:35:25.478Z,100006.03
2022-11-03T15:37:53.810Z,99998.03
2022-11-03T15:40:20.999Z,99990.84
2022-11-03T15:42:48.352Z,99974.06
2022-11-03T15:45:15.992Z,99969.69
2022-11-03T15:47:43.522Z,99966.00
2022-11-03T15:50:12.321Z,99965.00
2022-11-03T15:52:39.635Z,99956.03
2022-11-03T15:55:08.259Z,99957.75
2022-11-03T15:57:35.396Z,99949.91
2022-11-03T16:00:06.318Z,99951.63
2022-11-03T16:02:41.470Z,99947.28
2022-11-03T16:05:10.072Z,99940.94
2022-11-03T16:07:37.427Z,99934.69
2022-11-03T16:10:05.285Z,99932.94
2022-11-03T16:12:32.485Z,99933.00
2022-11-03T16:14:59.630Z,99921.63
2022-11-03T16:17:26.963Z,99908.59
2022-11-03T16:19:54.211Z,99904.13
2022-11-03T16:22:21.404Z,99912.00
2022-11-03T16:24:48.672Z,99916.44
2022-11-03T16:27:15.970Z,99912.88
2022-11-03T16:29:43.194Z,99913.69
2022-11-03T16:32:10.442Z,99905.69
2022-11-03T16:34:37.661Z,99910.13
2022-11-03T16:37:05.869Z,99920.72
2022-11-03T16:39:33.926Z,99907.59
2022-11-03T16:42:03.224Z,99903.28
2022-11-03T16:44:30.488Z,99896.34
2022-11-03T16:46:57.764Z,99893.72
2022-11-03T16:49:25.192Z,99883.06
2022-11-03T16:51:52.537Z,99877.72
2022-11-03T16:54:19.800Z,99884.75
2022-11-03T16:56:51.982Z,99885.59
2022-11-03T16:59:24.230Z,99886.47
2022-11-03T17:01:51.547Z,99890.00
2022-11-03T17:04:19.440Z,99891.81
2022-11-03T17:06:46.739Z,99896.34
2022-11-03T17:09:14.000Z,99886.66
2022-11-03T17:11:41.422Z,99892.84
2022-11-03T17:14:13.843Z,99892.69
2022-11-03T17:16:45.245Z,99891.72
2022-11-03T17:19:13.691Z,99890.00
2022-11-03T17:21:40.868Z,99893.56
2022-11-03T17:24:11.203Z,99893.50
2022-11-03T17:27:14.386Z,99884.66
2022-11-03T17:29:50.652Z,99885.44
2022-11-03T17:32:37.632Z,99885.44
2022-11-03T17:35:33.652Z,99884.38
2022-11-03T17:38:15.188Z,99882.56
2022-11-03T17:40:48.197Z,99878.84
2022-11-03T17:43:27.287Z,99884.97
2022-11-03T17:45:54.777Z,99875.31
2022-11-03T17:48:25.250Z,99875.13
2022-11-03T17:50:55.651Z,99880.31
2022-11-03T17:53:31.031Z,99874.09
2022-11-03T17:56:27.870Z,99872.38
2022-11-03T17:58:47.615Z,99866.25
2022-11-03T18:01:27.261Z,99854.78
2022-11-03T18:03:54.792Z,99843.19
2022-11-03T18:06:22.604Z,99844.91
2022-11-03T18:08:50.131Z,99851.88
2022-11-03T18:11:46.327Z,99848.44
2022-11-03T18:14:14.311Z,99844.00
2022-11-03T18:16:41.682Z,99837.88
2022-11-03T18:19:14.495Z,99839.50
2022-11-03T18:21:42.247Z,99842.97
2022-11-03T18:24:19.772Z,99839.38
2022-11-03T18:26:47.075Z,99831.28
2022-11-03T18:29:14.576Z,99834.75
2022-11-03T18:31:49.658Z,99829.50
2022-11-03T18:34:25.067Z,99819.91
2022-11-03T18:36:53.178Z,99810.19
2022-11-03T18:39:26.846Z,99804.88
2022-11-03T18:41:54.506Z,99803.00
2022-11-03T18:44:30.681Z,99796.06
2022-11-03T18:46:58.800Z,99780.16
2022-11-03T18:49:27.527Z,99776.63
2022-11-03T18:52:03.988Z,99767.78
2022-11-03T18:54:34.579Z,99769.47
2022-11-03T18:57:02.855Z,99758.00
2022-11-03T18:59:35.937Z,99759.78
2022-11-03T19:02:10.361Z,99768.63
2022-11-03T19:04:37.773Z,99776.28
2022-11-03T19:07:08.241Z,99765.16
2022-11-03T19:09:35.528Z,99745.13
2022-11-03T19:12:02.872Z,99737.19
2022-11-03T19:14:35.788Z,99735.41
2022-11-03T19:17:22.496Z,99731.84
2022-11-03T19:19:50.922Z,99738.00
2022-11-03T19:22:22.081Z,99733.63
2022-11-03T19:24:49.349Z,99736.28
2022-11-03T19:27:29.614Z,99721.31
2022-11-03T19:29:59.455Z,99713.34
2022-11-03T19:32:32.632Z,99707.13
2022-11-03T19:35:07.847Z,99715.00
2022-11-03T19:37:36.260Z,99703.56
2022-11-03T19:40:08.857Z,99712.28
2022-11-03T19:42:36.906Z,99709.75
2022-11-03T19:45:16.355Z,99701.88
2022-11-03T19:48:23.185Z,99686.91
2022-11-03T19:50:49.371Z,99683.28
2022-11-03T19:53:26.368Z,99672.72
2022-11-03T19:55:55.034Z,99667.47
2022-11-03T19:58:29.033Z,99657.84
2022-11-03T20:00:57.404Z,99654.28
2022-11-03T20:03:25.265Z,99645.56
2022-11-03T20:05:56.799Z,99635.00
2022-11-03T20:08:28.446Z,99636.72
2022-11-03T20:10:56.046Z,99632.34
2022-11-03T20:13:35.159Z,99632.22
2022-11-03T20:16:02.925Z,99614.66
2022-11-03T20:18:30.911Z,99611.16
2022-11-03T20:20:58.384Z,99613.75
2022-11-03T20:23:33.477Z,99631.38
2022-11-03T20:26:02.402Z,99621.88
2022-11-03T20:28:32.368Z,99601.72
2022-11-03T20:31:01.051Z,99582.31
2022-11-03T20:33:28.790Z,99575.25
2022-11-03T20:35:57.053Z,99555.03
2022-11-03T20:38:27.171Z,99548.03
2022-11-03T20:41:03.342Z,99551.50
2022-11-03T20:43:38.672Z,99555.84
2022-11-03T20:46:18.269Z,99556.78
2022-11-03T20:48:45.532Z,99555.94
2022-11-03T20:51:16.762Z,99543.63
2022-11-03T20:53:44.535Z,99533.13
2022-11-03T20:56:23.412Z,99533.13
2022-11-03T20:58:51.587Z,99531.34
2022-11-03T21:01:30.646Z,99515.59
2022-11-03T21:04:01.606Z,99522.53
2022-11-03T21:06:32.581Z,99525.06
2022-11-03T21:09:01.863Z,99518.19
2022-11-03T21:11:36.822Z,99512.03
2022-11-03T21:14:33.082Z,99513.72
2022-11-03T21:17:18.937Z,99518.03
2022-11-03T21:19:58.531Z,99508.28
2022-11-03T21:22:57.436Z,99505.56
2022-11-03T21:25:25.405Z,99500.31
2022-11-03T21:27:54.347Z,99488.84
2022-11-03T21:30:23.297Z,99491.44
2022-11-03T21:32:50.719Z,99490.47
2022-11-03T21:35:22.014Z,99499.25
2022-11-03T21:37:49.668Z,99493.09
2022-11-03T21:40:17.004Z,99478.91
2022-11-03T21:43:02.663Z,99474.47
2022-11-03T21:45:30.127Z,99469.13
2022-11-03T21:48:16.406Z,99463.97
2022-11-03T21:50:44.132Z,99439.31
2022-11-03T21:53:12.069Z,99436.56
2022-11-03T21:55:40.064Z,99442.47
2022-11-03T21:58:07.654Z,99428.53
2022-11-03T22:00:35.195Z,99430.09
2022-11-03T22:03:02.625Z,99420.38
2022-11-03T22:05:30.127Z,99415.16
2022-11-03T22:07:57.271Z,99413.31
2022-11-03T22:10:24.898Z,99403.75
2022-11-03T22:12:52.087Z,99403.75
2022-11-03T22:15:37.974Z,99403.75
2022-11-03T22:18:06.942Z,99394.94
2022-11-03T22:20:55.456Z,99373.84
2022-11-03T22:23:41.509Z,99375.66
2022-11-03T22:26:30.640Z,99370.41
2022-11-03T22:29:17.834Z,99373.75
2022-11-03T22:31:45.423Z,99369.31
2022-11-03T22:34:32.047Z,99356.09
2022-11-03T22:36:59.876Z,99348.03
2022-11-03T22:39:45.768Z,99338.22
2022-11-03T22:42:31.812Z,99339.09
2022-11-03T22:45:17.472Z,99337.28
2022-11-03T22:47:44.674Z,99339.91
2022-11-03T22:50:11.807Z,99327.75
2022-11-03T22:52:39.020Z,99320.78
2022-11-03T22:55:06.631Z,99318.00
2022-11-03T22:57:33.872Z,99321.53
2022-11-03T23:00:01.138Z,99312.69
2022-11-03T23:02:28.431Z,99309.19
2022-11-03T23:04:55.734Z,99303.91
2022-11-03T23:07:27.022Z,99293.59
2022-11-03T23:09:57.332Z,99287.59
2022-11-03T23:12:24.584Z,99281.38
2022-11-03T23:15:10.564Z,99273.56
2022-11-03T23:17:56.239Z,99270.16
2022-11-03T23:20:42.319Z,99269.06
2022-11-03T23:23:29.363Z,99256.16
2022-11-03T23:25:56.381Z,99257.81
2022-11-03T23:28:23.527Z,99251.84
2022-11-03T23:30:50.778Z,99242.19
2022-11-03T23:33:17.940Z,99239.50
2022-11-03T23:35:45.175Z,99222.91
2022-11-03T23:38:12.478Z,99228.09
2022-11-03T23:40:39.730Z,99224.63
2022-11-03T23:43:06.975Z,99221.09
2022-11-03T23:45:55.234Z,99216.72
2022-11-03T23:48:41.462Z,99196.66
2022-11-03T23:51:08.695Z,99181.34
2022-11-03T23:53:35.880Z,99176.97
2022-11-03T23:56:21.710Z,99164.44
2022-11-03T23:58:51.015Z,99152.03
